Terminal Aerodrome Forecast
Issued by NWS

Home | Current Version | Previous Version | Text Only | Print | Product List | Glossary On
Versions: 1 2 3 4 5 6 7 8 9 10 11 12 13 14 15
000
FTUS43 KDVN 021234 AAA
TAFBRL
TAF AMD
KBRL 021234Z 0213/0312 02007KT 3SM BR BKN004 OVC015
      TEMPO 0213/0214 4SM BR SCT004 OVC035
     FM021400 02007KT P6SM BKN030 OVC035
     FM021800 03007KT P6SM VCSH SCT030 OVC035
     FM030000 02004KT P6SM OVC035
     FM030600 35003KT P6SM SCT035=

USA.gov is the U.S. government's official web portal to all federal, state and local government web resources and services.